createdAt,value
2022-09-16T11:48:08.417Z,33.70
2022-09-16T11:50:55.527Z,32.02
2022-09-16T11:53:29.408Z,30.37
2022-09-16T11:56:13.325Z,29.07
2022-09-16T11:58:52.685Z,27.90
2022-09-16T12:01:36.215Z,26.86
2022-09-16T12:04:29.695Z,25.91
2022-09-16T12:07:10.913Z,24.96
2022-09-16T12:09:53.859Z,24.18
2022-09-16T12:12:32.384Z,23.51
2022-09-16T12:15:19.482Z,22.96
2022-09-16T12:18:11.210Z,22.45
2022-09-16T12:20:46.114Z,21.95
2022-09-16T12:23:19.135Z,21.52
2022-09-16T12:26:09.928Z,21.16
2022-09-16T12:29:05.348Z,20.80
2022-09-16T12:31:43.033Z,20.45
2022-09-16T12:34:20.853Z,20.16
2022-09-16T12:36:58.092Z,19.89
2022-09-16T12:39:25.862Z,19.62
2022-09-16T12:42:24.260Z,19.42
2022-09-16T12:45:08.162Z,19.20
2022-09-16T12:47:51.272Z,19.03
2022-09-16T12:50:37.170Z,18.87
2022-09-16T12:53:38.502Z,18.74
2022-09-16T12:56:21.446Z,18.60
2022-09-16T12:59:21.379Z,18.49
2022-09-16T13:02:01.730Z,18.37
2022-09-16T13:04:43.067Z,18.28
2022-09-16T13:07:21.666Z,18.18
2022-09-16T13:09:59.692Z,18.10
2022-09-16T13:12:40.832Z,18.03
2022-09-16T13:15:24.693Z,17.96
2022-09-16T13:17:53.527Z,17.88
2022-09-16T13:20:34.001Z,17.81
2022-09-16T13:23:18.294Z,17.72
2022-09-16T13:26:07.382Z,17.63
2022-09-16T13:28:37.021Z,17.55
2022-09-16T13:31:18.144Z,17.53
2022-09-16T13:33:48.010Z,17.53
2022-09-16T13:36:36.715Z,17.53
2022-09-16T13:39:11.282Z,17.52
2022-09-16T13:41:47.251Z,17.50
2022-09-16T13:44:38.585Z,17.48
2022-09-16T13:47:14.419Z,17.49
2022-09-16T13:49:56.416Z,17.51
2022-09-16T13:52:30.596Z,17.55
2022-09-16T13:55:11.025Z,17.53
2022-09-16T13:57:58.850Z,17.47
2022-09-16T14:00:49.046Z,17.35
2022-09-16T14:03:22.873Z,17.20
2022-09-16T14:06:09.397Z,17.08
2022-09-16T14:09:08.144Z,16.94
2022-09-16T14:11:53.982Z,16.78
2022-09-16T14:17:27.823Z,16.50
2022-09-16T14:20:00.799Z,16.38
2022-09-16T14:22:30.219Z,16.25
2022-09-16T14:25:06.700Z,16.10
2022-09-16T14:27:40.810Z,15.93
2022-09-16T14:30:18.041Z,15.79
2022-09-16T14:32:48.133Z,15.65
2022-09-16T14:35:21.423Z,15.59
2022-09-16T14:37:54.788Z,15.53
2022-09-16T14:40:25.064Z,15.48
2022-09-16T14:43:03.324Z,15.43
2022-09-16T14:45:32.133Z,15.39
2022-09-16T14:48:02.722Z,15.37
2022-09-16T14:50:33.342Z,15.38
2022-09-16T14:53:04.425Z,15.38
2022-09-16T14:55:36.348Z,15.38
2022-09-16T14:58:04.286Z,15.37
2022-09-16T15:00:43.149Z,15.38
2022-09-16T15:03:22.793Z,15.39
2022-09-16T15:05:52.534Z,15.40
2022-09-16T15:08:30.453Z,15.42
2022-09-16T15:11:02.180Z,15.44
2022-09-16T15:13:36.712Z,15.46
2022-09-16T15:16:07.303Z,15.47
2022-09-16T15:18:53.754Z,15.49
2022-09-16T15:21:34.646Z,15.50
2022-09-16T15:24:06.070Z,15.52
2022-09-16T15:26:47.483Z,15.54
2022-09-16T15:29:18.460Z,15.55
2022-09-16T15:31:47.403Z,15.55
2022-09-16T15:34:21.076Z,15.57
2022-09-16T15:36:54.440Z,15.58
2022-09-16T15:39:31.923Z,15.58
2022-09-16T15:42:13.333Z,15.60
2022-09-16T15:44:48.924Z,15.59
2022-09-16T15:47:38.524Z,15.60
2022-09-16T15:50:14.239Z,15.60
2022-09-16T15:52:48.201Z,15.61
2022-09-16T15:55:30.215Z,15.60
2022-09-16T15:58:24.740Z,15.60
2022-09-16T16:01:30.270Z,15.60
2022-09-16T16:04:00.817Z,15.59
2022-09-16T16:06:43.912Z,15.57
2022-09-16T16:09:44.051Z,15.56
2022-09-16T16:12:17.165Z,15.54
2022-09-16T16:14:46.691Z,15.52
2022-09-16T16:17:18.011Z,15.50
2022-09-16T16:19:50.498Z,15.48
2022-09-16T16:22:18.369Z,15.46
2022-09-16T16:24:46.521Z,15.42
2022-09-16T16:27:14.316Z,15.40
2022-09-16T16:29:42.420Z,15.36
2022-09-16T16:32:13.028Z,15.33
2022-09-16T16:34:43.203Z,15.29
2022-09-16T16:37:40.161Z,15.25
2022-09-16T16:40:06.682Z,15.20
2022-09-16T16:42:35.714Z,15.15
2022-09-16T16:45:04.269Z,15.11
2022-09-16T16:47:31.951Z,15.06
2022-09-16T16:50:00.912Z,15.00
2022-09-16T16:52:29.767Z,14.95
2022-09-16T16:54:57.574Z,14.90
2022-09-16T16:57:25.313Z,14.85
2022-09-16T16:59:53.293Z,15.30
2022-09-16T17:02:21.122Z,17.82
2022-09-16T17:04:49.098Z,19.91
2022-09-16T17:07:32.514Z,19.49
2022-09-16T17:10:00.807Z,18.59
2022-09-16T17:12:29.019Z,17.99
2022-09-16T17:14:57.004Z,17.54
2022-09-16T17:17:29.073Z,17.18
2022-09-16T17:19:59.694Z,16.85
2022-09-16T17:22:27.849Z,16.57
2022-09-16T17:24:55.536Z,16.31
2022-09-16T17:27:26.863Z,16.09
2022-09-16T17:29:54.689Z,15.87
2022-09-16T17:32:22.529Z,15.67
2022-09-16T17:34:50.532Z,15.49
2022-09-16T17:37:19.999Z,15.32
2022-09-16T17:39:49.623Z,15.16
2022-09-16T17:42:18.470Z,15.01
2022-09-16T17:44:46.423Z,14.88
2022-09-16T17:47:14.221Z,14.75
2022-09-16T17:49:42.227Z,14.64
2022-09-16T17:52:09.977Z,14.52
2022-09-16T17:54:37.947Z,14.41
2022-09-16T17:57:05.687Z,14.29
2022-09-16T17:59:33.543Z,14.20
2022-09-16T18:02:01.693Z,14.66
2022-09-16T18:04:29.792Z,17.02
2022-09-16T18:06:57.744Z,18.68
2022-09-16T18:09:25.487Z,18.23
2022-09-16T18:11:53.167Z,17.49
2022-09-16T18:14:23.427Z,16.93
2022-09-16T18:16:51.990Z,16.49
2022-09-16T18:19:19.972Z,16.13
2022-09-16T18:21:47.717Z,15.84
2022-09-16T18:24:15.546Z,15.57
2022-09-16T18:26:43.708Z,15.34
2022-09-16T18:29:13.315Z,15.12
2022-09-16T18:31:46.850Z,14.92
2022-09-16T18:34:15.737Z,15.27
2022-09-16T18:36:43.843Z,17.75
2022-09-16T18:39:14.687Z,19.64
2022-09-16T18:41:45.112Z,19.07
2022-09-16T18:44:23.898Z,18.18
2022-09-16T18:46:53.219Z,17.48
2022-09-16T18:49:24.075Z,16.97
2022-09-16T18:51:53.118Z,16.55
2022-09-16T18:54:29.057Z,16.19
2022-09-16T18:57:01.991Z,15.85
2022-09-16T18:59:32.677Z,15.55
2022-09-16T19:02:03.415Z,15.29
2022-09-16T19:04:37.156Z,15.64
2022-09-16T19:07:08.355Z,17.88
2022-09-16T19:09:39.877Z,19.46
2022-09-16T19:12:12.426Z,18.86
2022-09-16T19:14:41.051Z,18.00
2022-09-16T19:17:09.698Z,17.33
2022-09-16T19:19:37.962Z,16.81
2022-09-16T19:22:06.367Z,16.40
2022-09-16T19:24:37.331Z,16.03
2022-09-16T19:27:05.210Z,15.70
2022-09-16T19:29:32.959Z,15.88
2022-09-16T19:32:01.507Z,17.87
2022-09-16T19:34:29.553Z,19.41
2022-09-16T19:36:57.784Z,18.83
2022-09-16T19:39:27.158Z,17.98
2022-09-16T19:41:55.471Z,17.32
2022-09-16T19:44:23.253Z,16.80
2022-09-16T19:46:52.076Z,16.36
2022-09-16T19:49:21.479Z,15.98
2022-09-16T19:51:50.937Z,15.65
2022-09-16T19:54:19.680Z,15.34
2022-09-16T19:56:50.639Z,15.67
2022-09-16T19:59:20.487Z,17.72
2022-09-16T20:01:49.292Z,19.21
2022-09-16T20:04:19.919Z,18.59
2022-09-16T20:06:48.698Z,17.73
2022-09-16T20:09:17.159Z,17.07
2022-09-16T20:11:47.292Z,16.55
2022-09-16T20:14:19.132Z,16.10
2022-09-16T20:16:48.471Z,15.71
2022-09-16T20:19:18.526Z,15.36
2022-09-16T20:21:46.628Z,15.05
2022-09-16T20:24:20.314Z,15.32
2022-09-16T20:26:53.317Z,17.43
2022-09-16T20:29:21.699Z,18.89
2022-09-16T20:31:52.707Z,18.31
2022-09-16T20:34:22.955Z,17.45
2022-09-16T20:36:51.752Z,16.77
2022-09-16T20:39:19.637Z,16.25
2022-09-16T20:41:49.952Z,15.82
2022-09-16T20:44:18.544Z,15.44
2022-09-16T20:46:46.551Z,15.10
2022-09-16T20:49:16.671Z,14.80
2022-09-16T20:51:45.131Z,15.03
2022-09-16T20:54:15.140Z,16.98
2022-09-16T20:56:45.960Z,18.72
2022-09-16T20:59:16.485Z,18.19
2022-09-16T21:01:45.026Z,17.31
2022-09-16T21:04:15.759Z,16.63
2022-09-16T21:06:44.289Z,16.10
2022-09-16T21:09:15.027Z,15.66
2022-09-16T21:11:46.281Z,15.26
2022-09-16T21:14:16.712Z,14.92
2022-09-16T21:16:47.074Z,15.18
2022-09-16T21:19:16.220Z,17.31
2022-09-16T21:21:47.585Z,18.87
2022-09-16T21:24:17.139Z,18.22
2022-09-16T21:26:46.165Z,17.34
2022-09-16T21:29:17.664Z,16.66
2022-09-16T21:31:45.520Z,16.12
2022-09-16T21:34:20.096Z,15.67
2022-09-16T21:36:48.989Z,15.28
2022-09-16T21:39:19.390Z,14.94
2022-09-16T21:41:48.214Z,14.64
2022-09-16T21:44:16.788Z,14.35
2022-09-16T21:46:46.568Z,14.66
2022-09-16T21:49:22.975Z,16.89
2022-09-16T21:51:56.177Z,18.46
2022-09-16T21:54:25.247Z,17.79
2022-09-16T21:56:53.346Z,16.97
2022-09-16T21:59:21.111Z,16.32
2022-09-16T22:01:51.164Z,15.82
2022-09-16T22:04:22.555Z,15.39
2022-09-16T22:06:52.864Z,15.01
2022-09-16T22:09:21.017Z,14.68
2022-09-16T22:11:49.377Z,14.38
2022-09-16T22:14:17.289Z,14.10
2022-09-16T22:16:45.392Z,14.53
2022-09-16T22:19:16.443Z,17.12
2022-09-16T22:21:46.802Z,19.01
2022-09-16T22:24:20.453Z,18.31
2022-09-16T22:26:51.406Z,17.33
2022-09-16T22:29:19.512Z,16.59
2022-09-16T22:31:47.578Z,16.02
2022-09-16T22:34:15.545Z,15.55
2022-09-16T22:36:43.727Z,15.13
2022-09-16T22:39:14.641Z,14.77
2022-09-16T22:41:43.015Z,14.43
2022-09-16T22:44:11.912Z,14.69
2022-09-16T22:46:44.734Z,16.80
2022-09-16T22:49:13.931Z,18.45
2022-09-16T22:51:42.127Z,17.86
2022-09-16T22:54:12.653Z,16.97
2022-09-16T22:56:42.595Z,16.26
2022-09-16T22:59:17.973Z,15.70
2022-09-16T23:01:47.210Z,15.23
2022-09-16T23:04:15.918Z,14.82
2022-09-16T23:06:43.892Z,14.46
2022-09-16T23:09:13.423Z,14.64
2022-09-16T23:11:41.363Z,16.69
2022-09-16T23:14:13.335Z,18.32
2022-09-16T23:16:41.752Z,17.72
2022-09-16T23:19:11.711Z,16.82
2022-09-16T23:21:41.240Z,16.10
2022-09-16T23:24:15.080Z,15.54
2022-09-16T23:26:44.358Z,15.06
2022-09-16T23:29:13.955Z,14.66
2022-09-16T23:31:43.824Z,14.29
2022-09-16T23:34:20.575Z,13.97
2022-09-16T23:36:49.478Z,14.30
2022-09-16T23:39:18.521Z,16.41
2022-09-16T23:41:47.231Z,17.99
2022-09-16T23:44:16.435Z,17.43
2022-09-16T23:46:44.853Z,16.55
2022-09-16T23:49:13.597Z,15.85
2022-09-16T23:51:41.439Z,15.30
2022-09-16T23:54:09.135Z,14.85
2022-09-16T23:56:36.980Z,14.46
2022-09-16T23:59:04.824Z,14.10
